Bornholm — C4KF2 — position and weather

sailwx.info

Track history (hours):
 
Tides and Currents Weather Stations Pressure Air Temp Water Temp Dewpoint Dewpoint Depression Visibility Wind Speed Wind Dir Waves Ship Positions

Bornholm

Last reported at 2014-Nov-22 02:31 UTC. Time now 2014-Nov-22 03:11 UTC.
Position N 44°19' E 008°30'.

Length 118 m; draft 7.3 m.

Type: Cargo ship. MMSI: 212521000.

Date/timePositionNaut miles runAvg speedWind from/ knotsBaromVisibWave heightAir tempDewpointWater temp
2014-Nov-22 02:31N 44°19' E 008°30'0 0.0
2014-Nov-22 01:16N 44°19' E 008°30'0 0.0
2014-Nov-22 00:31N 44°19' E 008°30'0 0.0
2014-Nov-21 23:25N 44°19' E 008°30'0 0.0
2014-Nov-21 22:31N 44°19' E 008°30'0 0.0
2014-Nov-21 20:25N 44°19' E 008°30'0 0.0
2014-Nov-21 19:31N 44°19' E 008°30'0 0.0
2014-Nov-21 18:25N 44°19' E 008°30'0 0.0
2014-Nov-21 17:25N 44°19' E 008°30'0 0.0
2014-Nov-21 16:04N 44°19' E 008°30'0 0.0
2014-Nov-21 15:22N 44°19' E 008°30'0 0.0
2014-Nov-21 14:25N 44°19' E 008°30'0 0.0
2014-Nov-21 12:19N 44°19' E 008°30'0 0.0
2014-Nov-21 11:31N 44°19' E 008°30'0 0.0
2014-Nov-21 09:19N 44°19' E 008°30'0 0.0
2014-Nov-21 08:25N 44°19' E 008°30'0 0.0
2014-Nov-21 07:28N 44°19' E 008°30'0 0.0
2014-Nov-21 04:07N 44°19' E 008°30'0 0.0
2014-Nov-21 03:31N 44°19' E 008°30'0 0.0
2014-Nov-21 02:31N 44°19' E 008°30'0 0.0
2014-Nov-21 01:31N 44°19' E 008°30'0 0.0
2014-Nov-21 00:28N 44°19' E 008°30'0 0.0
2014-Nov-20 23:22N 44°19' E 008°30'0 0.0
2014-Nov-20 22:31N 44°19' E 008°30'0 0.0
2014-Nov-20 19:25N 44°19' E 008°30'0 0.0
2014-Nov-20 16:19N 44°19' E 008°30'0 0.0
2014-Nov-20 15:22N 44°19' E 008°30'0 0.0
2014-Nov-20 13:07N 44°19' E 008°30'0 0.0
2014-Nov-20 12:25N 44°19' E 008°30'0 0.0
2014-Nov-20 11:28N 44°19' E 008°30'0 0.0
2014-Nov-20 10:31N 44°19' E 008°30'0 0.0
2014-Nov-20 09:19N 44°19' E 008°30'0 0.0
2014-Nov-20 08:04N 44°19' E 008°30'0 0.0
2014-Nov-20 07:28N 44°19' E 008°30'0 0.0
2014-Nov-20 06:31N 44°19' E 008°30'0 0.0
2014-Nov-20 05:13N 44°19' E 008°30'0 0.0
2014-Nov-20 04:31N 44°19' E 008°30'0 0.0
2014-Nov-20 03:31N 44°19' E 008°30'0 0.0
2014-Nov-20 02:28N 44°19' E 008°30'0 0.0
2014-Nov-20 01:31N 44°19' E 008°30'0 0.0
2014-Nov-20 00:19N 44°19' E 008°30'0 0.0
2014-Nov-19 23:31N 44°19' E 008°30'0 0.0
2014-Nov-19 22:25N 44°19' E 008°30'0 0.0
2014-Nov-19 21:19N 44°19' E 008°30'0 0.0
2014-Nov-19 20:31N 44°19' E 008°30'0 0.0
2014-Nov-19 19:31N 44°19' E 008°30'0 0.0
2014-Nov-19 17:28N 44°19' E 008°30'0 0.0
2014-Nov-19 16:22N 44°19' E 008°30'0 0.0
2014-Nov-19 15:31N 44°19' E 008°30'0 0.0
2014-Nov-19 14:31N 44°19' E 008°30'0 0.0
2014-Nov-19 13:25N 44°19' E 008°30'0 0.0
2014-Nov-19 11:31N 44°19' E 008°30'0 0.0
2014-Nov-19 10:19N 44°19' E 008°30'0 0.0
2014-Nov-19 09:25N 44°19' E 008°30'0 0.0
2014-Nov-19 08:22N 44°19' E 008°30'0 0.0
2014-Nov-19 07:28N 44°19' E 008°30'0 0.0
2014-Nov-19 06:31N 44°19' E 008°30'0 0.0
2014-Nov-19 05:33N 44°19' E 008°30'3 2.8
2014-Nov-19 04:32N 44°17' E 008°33'8 8.0
2014-Nov-19 03:33N 44°09' E 008°31'10 9.9
2014-Nov-19 02:30N 43°59' E 008°28'49 9.6
2014-Nov-18 21:22N 43°25' E 007°38'9 9.7
2014-Nov-18 20:25N 43°19' E 007°28'9 9.8
2014-Nov-18 19:30N 43°13' E 007°19'9 9.6
2014-Nov-18 18:31N 43°07' E 007°09'9 9.4
2014-Nov-18 17:33N 43°01' E 007°00'12 9.3
2014-Nov-18 16:15N 42°53' E 006°48'7 9.3
2014-Nov-18 15:29N 42°48' E 006°40'1010.2
2014-Nov-18 14:33N 42°42' E 006°31'19 9.6
2014-Nov-18 12:33N 42°29' E 006°12'16911.3
2014-Nov-17 21:33N 40°35' E 003°24'1211.9
2014-Nov-17 20:33N 40°26' E 003°13'1211.8
2014-Nov-17 19:33N 40°18' E 003°02'1211.6
2014-Nov-17 18:33N 40°11' E 002°50'1211.6
2014-Nov-17 17:33N 40°03' E 002°39'1211.6
2014-Nov-17 16:33N 39°55' E 002°28'1211.6
2014-Nov-17 15:33N 39°48' E 002°16'1211.8
2014-Nov-17 14:33N 39°40' E 002°05'1211.9
2014-Nov-17 13:33N 39°32' E 001°54'1212.0
2014-Nov-17 12:33N 39°24' E 001°42'1211.8
2014-Nov-17 11:33N 39°16' E 001°31'13311.8
2014-Nov-17 00:19N 37°39' W 000°25'911.5
2014-Nov-16 23:33N 37°32' W 000°32'1211.9
2014-Nov-16 22:33N 37°24' W 000°44'1212.0
2014-Nov-16 21:31N 37°16' W 000°55'22412.5
2014-Nov-16 03:33N 35°59' W 005°17'  
Track history (hours):
 
Tides and Currents Weather Stations Pressure Air Temp Water Temp Dewpoint Dewpoint Depression Visibility Wind Speed Wind Dir Waves Ship Positions

Bornholm

Last reported at 2014-Nov-22 02:31 UTC. Time now 2014-Nov-22 03:11 UTC.
Position N 44°19' E 008°30'.

Length 118 m; draft 7.3 m.

Type: Cargo ship. MMSI: 212521000.

Date/timePositionNaut miles runAvg speedWind from/ knotsBaromVisibWave heightAir tempDewpointWater temp
2014-Nov-22 02:31N 44°19' E 008°30'0 0.0
2014-Nov-22 01:16N 44°19' E 008°30'0 0.0
2014-Nov-22 00:31N 44°19' E 008°30'0 0.0
2014-Nov-21 23:25N 44°19' E 008°30'0 0.0
2014-Nov-21 22:31N 44°19' E 008°30'0 0.0
2014-Nov-21 20:25N 44°19' E 008°30'0 0.0
2014-Nov-21 19:31N 44°19' E 008°30'0 0.0
2014-Nov-21 18:25N 44°19' E 008°30'0 0.0
2014-Nov-21 17:25N 44°19' E 008°30'0 0.0
2014-Nov-21 16:04N 44°19' E 008°30'0 0.0
2014-Nov-21 15:22N 44°19' E 008°30'0 0.0
2014-Nov-21 14:25N 44°19' E 008°30'0 0.0
2014-Nov-21 12:19N 44°19' E 008°30'0 0.0
2014-Nov-21 11:31N 44°19' E 008°30'0 0.0
2014-Nov-21 09:19N 44°19' E 008°30'0 0.0
2014-Nov-21 08:25N 44°19' E 008°30'0 0.0
2014-Nov-21 07:28N 44°19' E 008°30'0 0.0
2014-Nov-21 04:07N 44°19' E 008°30'0 0.0
2014-Nov-21 03:31N 44°19' E 008°30'0 0.0
2014-Nov-21 02:31N 44°19' E 008°30'0 0.0
2014-Nov-21 01:31N 44°19' E 008°30'0 0.0
2014-Nov-21 00:28N 44°19' E 008°30'0 0.0
2014-Nov-20 23:22N 44°19' E 008°30'0 0.0
2014-Nov-20 22:31N 44°19' E 008°30'0 0.0
2014-Nov-20 19:25N 44°19' E 008°30'0 0.0
2014-Nov-20 16:19N 44°19' E 008°30'0 0.0
2014-Nov-20 15:22N 44°19' E 008°30'0 0.0
2014-Nov-20 13:07N 44°19' E 008°30'0 0.0
2014-Nov-20 12:25N 44°19' E 008°30'0 0.0
2014-Nov-20 11:28N 44°19' E 008°30'0 0.0
2014-Nov-20 10:31N 44°19' E 008°30'0 0.0
2014-Nov-20 09:19N 44°19' E 008°30'0 0.0
2014-Nov-20 08:04N 44°19' E 008°30'0 0.0
2014-Nov-20 07:28N 44°19' E 008°30'0 0.0
2014-Nov-20 06:31N 44°19' E 008°30'0 0.0
2014-Nov-20 05:13N 44°19' E 008°30'0 0.0
2014-Nov-20 04:31N 44°19' E 008°30'0 0.0
2014-Nov-20 03:31N 44°19' E 008°30'0 0.0
2014-Nov-20 02:28N 44°19' E 008°30'0 0.0
2014-Nov-20 01:31N 44°19' E 008°30'0 0.0
2014-Nov-20 00:19N 44°19' E 008°30'0 0.0
2014-Nov-19 23:31N 44°19' E 008°30'0 0.0
2014-Nov-19 22:25N 44°19' E 008°30'0 0.0
2014-Nov-19 21:19N 44°19' E 008°30'0 0.0
2014-Nov-19 20:31N 44°19' E 008°30'0 0.0
2014-Nov-19 19:31N 44°19' E 008°30'0 0.0
2014-Nov-19 17:28N 44°19' E 008°30'0 0.0
2014-Nov-19 16:22N 44°19' E 008°30'0 0.0
2014-Nov-19 15:31N 44°19' E 008°30'0 0.0
2014-Nov-19 14:31N 44°19' E 008°30'0 0.0
2014-Nov-19 13:25N 44°19' E 008°30'0 0.0
2014-Nov-19 11:31N 44°19' E 008°30'0 0.0
2014-Nov-19 10:19N 44°19' E 008°30'0 0.0
2014-Nov-19 09:25N 44°19' E 008°30'0 0.0
2014-Nov-19 08:22N 44°19' E 008°30'0 0.0
2014-Nov-19 07:28N 44°19' E 008°30'0 0.0
2014-Nov-19 06:31N 44°19' E 008°30'0 0.0
2014-Nov-19 05:33N 44°19' E 008°30'3 2.8
2014-Nov-19 04:32N 44°17' E 008°33'8 8.0
2014-Nov-19 03:33N 44°09' E 008°31'10 9.9
2014-Nov-19 02:30N 43°59' E 008°28'49 9.6
2014-Nov-18 21:22N 43°25' E 007°38'9 9.7
2014-Nov-18 20:25N 43°19' E 007°28'9 9.8
2014-Nov-18 19:30N 43°13' E 007°19'9 9.6
2014-Nov-18 18:31N 43°07' E 007°09'9 9.4
2014-Nov-18 17:33N 43°01' E 007°00'12 9.3
2014-Nov-18 16:15N 42°53' E 006°48'7 9.3
2014-Nov-18 15:29N 42°48' E 006°40'1010.2
2014-Nov-18 14:33N 42°42' E 006°31'19 9.6
2014-Nov-18 12:33N 42°29' E 006°12'16911.3
2014-Nov-17 21:33N 40°35' E 003°24'1211.9
2014-Nov-17 20:33N 40°26' E 003°13'1211.8
2014-Nov-17 19:33N 40°18' E 003°02'1211.6
2014-Nov-17 18:33N 40°11' E 002°50'1211.6
2014-Nov-17 17:33N 40°03' E 002°39'1211.6
2014-Nov-17 16:33N 39°55' E 002°28'1211.6
2014-Nov-17 15:33N 39°48' E 002°16'1211.8
2014-Nov-17 14:33N 39°40' E 002°05'1211.9
2014-Nov-17 13:33N 39°32' E 001°54'1212.0
2014-Nov-17 12:33N 39°24' E 001°42'1211.8
2014-Nov-17 11:33N 39°16' E 001°31'13311.8
2014-Nov-17 00:19N 37°39' W 000°25'911.5
2014-Nov-16 23:33N 37°32' W 000°32'1211.9
2014-Nov-16 22:33N 37°24' W 000°44'1212.0
2014-Nov-16 21:31N 37°16' W 000°55'22412.5
2014-Nov-16 03:33N 35°59' W 005°17'  

Dump ship's entire track history